Time;durP1;ratioP1;P1;durP2;ratioP2;P2;SDS_P1;SDS_P2;PMS_P1;PMS_P2;Temp;Humidity;BMP_temperature;BMP_pressure;BME280_temperature;BME280_humidity;BME280_pressure;Samples;Min_cycle;Max_cycle;Signal;HPM_P1;HPM_P2
2021/05/01 00:00:30;;;;;;;27.88;16.77;;;9.80;99.30;;;;;;5020730;28;20396;-75
2021/05/01 00:02:56;;;;;;;26.90;16.58;;;9.80;99.30;;;;;;5018330;28;20038;-75
2021/05/01 00:05:25;;;;;;;28.95;16.67;;;9.80;99.40;;;;;;5031982;28;20017;-75
2021/05/01 00:07:50;;;;;;;30.83;16.98;;;9.70;99.40;;;;;;5033523;28;20048;-76
2021/05/01 00:10:16;;;;;;;29.15;17.40;;;9.80;99.40;;;;;;5032057;28;20041;-77
2021/05/01 00:12:42;;;;;;;26.60;16.70;;;9.80;99.40;;;;;;5031770;28;20037;-75
2021/05/01 00:15:10;;;;;;;24.70;16.20;;;9.80;99.40;;;;;;5031883;28;20452;-75
2021/05/01 00:17:36;;;;;;;30.52;17.98;;;9.80;99.40;;;;;;5031802;28;20065;-75
2021/05/01 00:20:03;;;;;;;25.70;15.82;;;9.80;99.40;;;;;;5033311;28;20026;-75
2021/05/01 00:22:28;;;;;;;26.95;17.00;;;9.70;99.40;;;;;;5031863;28;20087;-75
2021/05/01 00:24:54;;;;;;;30.70;16.75;;;9.70;99.30;;;;;;5031239;28;20049;-75
2021/05/01 00:27:19;;;;;;;26.63;17.20;;;9.70;99.40;;;;;;5031742;28;20428;-75
2021/05/01 00:29:45;;;;;;;26.63;16.45;;;9.70;99.40;;;;;;5031775;28;20053;-76
2021/05/01 00:32:10;;;;;;;25.40;16.20;;;9.70;99.40;;;;;;5033162;28;20034;-75
2021/05/01 00:34:36;;;;;;;29.30;16.48;;;9.70;99.30;;;;;;5031709;28;20041;-75
2021/05/01 00:37:02;;;;;;;25.73;16.90;;;9.60;99.40;;;;;;5031602;28;20041;-75
2021/05/01 00:39:28;;;;;;;30.90;17.80;;;9.50;99.40;;;;;;5030273;28;20053;-75
2021/05/01 00:41:53;;;;;;;29.15;17.40;;;9.50;99.50;;;;;;5031226;28;20027;-76
2021/05/01 00:44:19;;;;;;;31.38;18.80;;;9.40;99.50;;;;;;5031455;28;20399;-76
2021/05/01 00:46:45;;;;;;;26.65;16.52;;;9.40;99.60;;;;;;5033225;28;20025;-75
2021/05/01 00:49:11;;;;;;;29.92;17.70;;;9.30;99.60;;;;;;5031609;28;20309;-75
2021/05/01 00:51:36;;;;;;;27.55;18.23;;;9.30;99.60;;;;;;5031370;28;20463;-75
2021/05/01 00:54:02;;;;;;;34.53;18.58;;;9.20;99.70;;;;;;5029407;28;20481;-77
2021/05/01 00:56:28;;;;;;;31.77;19.02;;;9.10;99.70;;;;;;5031132;28;20079;-75
2021/05/01 00:58:54;;;;;;;30.75;16.33;;;9.10;99.70;;;;;;5032640;28;20036;-75
2021/05/01 01:01:20;;;;;;;29.67;17.38;;;9.10;99.60;;;;;;5031607;28;20451;-75
2021/05/01 01:03:47;;;;;;;28.85;16.80;;;9.10;99.60;;;;;;5031140;28;20038;-76
2021/05/01 01:06:15;;;;;;;27.65;17.08;;;9.00;99.70;;;;;;5031008;28;20668;-76
2021/05/01 01:08:41;;;;;;;30.58;18.30;;;8.90;99.90;;;;;;5030922;28;20056;-75
2021/05/01 01:11:07;;;;;;;30.00;18.15;;;9.00;99.60;;;;;;5032404;28;20030;-75
2021/05/01 01:13:36;;;;;;;33.47;20.13;;;8.90;99.50;;;;;;5030715;28;20414;-76
2021/05/01 01:16:01;;;;;;;29.33;18.45;;;8.90;99.60;;;;;;5030903;28;20041;-75
2021/05/01 01:18:27;;;;;;;29.73;18.23;;;8.90;99.60;;;;;;5029747;28;20099;-76
2021/05/01 01:20:53;;;;;;;30.42;18.88;;;8.90;99.60;;;;;;5030937;28;20037;-75
2021/05/01 01:23:19;;;;;;;28.95;18.02;;;8.80;99.50;;;;;;5030753;28;20375;-75
2021/05/01 01:25:45;;;;;;;30.90;17.85;;;8.90;99.60;;;;;;5031353;28;20075;-74
2021/05/01 01:28:11;;;;;;;32.13;18.67;;;8.80;99.50;;;;;;5030563;28;20475;-75
2021/05/01 01:30:36;;;;;;;34.10;18.98;;;8.90;99.60;;;;;;5030860;28;20372;-75
2021/05/01 01:33:05;;;;;;;29.65;17.73;;;8.90;99.60;;;;;;5030370;28;20049;-75
2021/05/01 01:35:31;;;;;;;31.58;17.80;;;8.90;99.60;;;;;;5030356;28;20117;-76
2021/05/01 01:37:57;;;;;;;28.05;17.45;;;8.80;99.60;;;;;;5032005;28;20130;-75
2021/05/01 01:40:23;;;;;;;31.33;18.85;;;8.80;99.60;;;;;;5030683;28;20049;-76
2021/05/01 01:42:49;;;;;;;30.70;17.85;;;8.80;99.70;;;;;;5030362;28;20514;-75
2021/05/01 01:45:17;;;;;;;27.75;18.17;;;8.70;99.70;;;;;;5030328;28;20455;-75
2021/05/01 01:47:43;;;;;;;34.05;18.08;;;8.70;99.80;;;;;;5030212;28;20046;-74
2021/05/01 01:50:12;;;;;;;28.50;17.00;;;8.80;99.90;;;;;;5031791;28;20040;-75
2021/05/01 01:52:39;;;;;;;28.55;17.63;;;8.80;99.80;;;;;;5029985;28;20048;-75
2021/05/01 01:55:09;;;;;;;26.75;16.65;;;8.90;99.80;;;;;;5030177;28;20029;-74
2021/05/01 01:57:35;;;;;;;31.27;16.42;;;8.90;99.70;;;;;;5030110;28;20459;-75
2021/05/01 02:00:04;;;;;;;27.35;17.23;;;8.80;99.70;;;;;;5029956;28;20079;-75
2021/05/01 02:02:29;;;;;;;26.85;17.08;;;8.80;99.80;;;;;;5030121;28;20049;-75
2021/05/01 02:04:55;;;;;;;34.15;17.95;;;8.80;99.80;;;;;;5030278;28;20122;-75
2021/05/01 02:07:21;;;;;;;29.25;18.23;;;8.80;99.80;;;;;;5030022;28;20041;-75
2021/05/01 02:09:46;;;;;;;31.85;17.92;;;8.90;99.80;;;;;;5029553;28;20049;-75
2021/05/01 02:12:12;;;;;;;27.08;16.17;;;8.90;99.70;;;;;;5028586;28;20397;-75
2021/05/01 02:14:38;;;;;;;27.50;16.55;;;8.90;99.80;;;;;;5028381;28;20037;-75
2021/05/01 02:17:04;;;;;;;28.23;16.00;;;8.80;99.80;;;;;;5030425;28;20076;-76
2021/05/01 02:19:30;;;;;;;29.33;16.63;;;8.80;99.90;;;;;;5029544;28;20064;-75
2021/05/01 02:21:56;;;;;;;29.65;16.50;;;8.70;99.90;;;;;;5029565;28;20042;-75
2021/05/01 02:24:21;;;;;;;33.20;17.88;;;8.70;99.90;;;;;;5029377;28;20394;-75
2021/05/01 02:26:47;;;;;;;29.95;18.30;;;8.80;99.90;;;;;;5029468;28;20056;-75
2021/05/01 02:29:13;;;;;;;29.98;18.15;;;8.70;99.90;;;;;;5031111;28;20038;-75
2021/05/01 02:31:38;;;;;;;27.13;17.38;;;8.70;99.90;;;;;;5029672;28;20475;-76
2021/05/01 02:34:04;;;;;;;26.20;17.00;;;8.60;99.90;;;;;;5029395;28;20038;-75
2021/05/01 02:36:30;;;;;;;28.67;18.17;;;8.60;99.90;;;;;;5029420;28;20037;-75
2021/05/01 02:38:55;;;;;;;31.13;17.45;;;8.70;99.90;;;;;;5029356;28;20401;-76
2021/05/01 02:41:22;;;;;;;25.73;15.98;;;8.60;99.90;;;;;;5029366;28;20439;-75
2021/05/01 02:43:49;;;;;;;32.42;17.65;;;8.60;99.90;;;;;;5030878;28;20079;-75
2021/05/01 02:46:14;;;;;;;32.72;18.70;;;8.60;99.80;;;;;;5029468;28;20128;-76
2021/05/01 02:48:40;;;;;;;31.38;18.58;;;8.60;99.90;;;;;;5029483;28;20116;-76
2021/05/01 02:51:05;;;;;;;28.80;17.75;;;8.60;99.80;;;;;;5028077;28;20443;-76
2021/05/01 02:53:33;;;;;;;29.17;18.00;;;8.60;99.80;;;;;;5029145;28;20026;-76
2021/05/01 02:55:59;;;;;;;31.00;18.70;;;8.50;99.80;;;;;;5029628;28;20036;-75
2021/05/01 02:58:25;;;;;;;26.95;16.95;;;8.50;99.80;;;;;;5029008;28;20042;-75
2021/05/01 03:00:50;;;;;;;32.75;19.42;;;8.40;99.80;;;;;;5029408;28;20037;-75
2021/05/01 03:03:16;;;;;;;34.25;20.25;;;8.40;99.80;;;;;;5028985;28;20025;-76
2021/05/01 03:05:42;;;;;;;31.10;18.83;;;8.40;99.80;;;;;;5029165;28;20038;-75
2021/05/01 03:08:07;;;;;;;28.35;18.00;;;8.40;99.80;;;;;;5030654;28;20348;-75
2021/05/01 03:10:36;;;;;;;32.38;19.13;;;8.30;99.90;;;;;;5028738;28;20038;-74
2021/05/01 03:13:01;;;;;;;27.20;17.23;;;8.30;99.80;;;;;;5028968;28;20041;-75
2021/05/01 03:15:27;;;;;;;30.67;19.13;;;8.40;99.90;;;;;;5029172;28;20128;-75
2021/05/01 03:17:53;;;;;;;35.40;19.63;;;8.40;99.80;;;;;;5030467;28;20065;-75
2021/05/01 03:20:19;;;;;;;29.48;18.63;;;8.40;99.80;;;;;;5032109;28;20474;-75
2021/05/01 03:22:47;;;;;;;32.33;18.15;;;8.40;99.80;;;;;;5034428;28;20018;-75
2021/05/01 03:25:13;;;;;;;33.30;19.73;;;8.30;99.80;;;;;;5032867;28;20049;-75
2021/05/01 03:27:39;;;;;;;32.08;19.55;;;8.30;99.80;;;;;;5031751;28;20079;-75
2021/05/01 03:30:09;;;;;;;34.55;20.45;;;8.30;99.90;;;;;;5031783;28;20560;-75
2021/05/01 03:32:36;;;;;;;32.00;19.50;;;8.30;99.90;;;;;;5032615;28;20045;-75
2021/05/01 03:35:01;;;;;;;33.58;20.48;;;8.40;99.80;;;;;;5034403;28;20470;-75
2021/05/01 03:37:27;;;;;;;35.65;19.20;;;8.40;99.90;;;;;;5032677;28;20050;-76
2021/05/01 03:39:52;;;;;;;34.05;19.80;;;8.30;99.80;;;;;;5032741;28;20029;-75
2021/05/01 03:42:19;;;;;;;30.13;18.85;;;8.30;99.80;;;;;;5032331;28;20099;-76
2021/05/01 03:44:44;;;;;;;33.22;19.98;;;8.30;99.70;;;;;;5032618;28;20459;-76
2021/05/01 03:47:10;;;;;;;32.90;19.35;;;8.20;99.80;;;;;;5034299;28;20124;-77
2021/05/01 03:49:36;;;;;;;31.63;19.38;;;8.10;99.90;;;;;;5031154;28;20424;-76
2021/05/01 03:52:03;;;;;;;33.65;19.45;;;8.00;99.90;;;;;;5032309;28;20048;-75
2021/05/01 03:54:29;;;;;;;37.60;20.03;;;8.00;99.80;;;;;;5031368;28;20048;-75
2021/05/01 03:56:55;;;;;;;34.97;21.27;;;8.10;99.90;;;;;;5032369;28;20030;-75
2021/05/01 03:59:21;;;;;;;36.85;21.52;;;8.10;99.90;;;;;;5031382;28;20205;-74
2021/05/01 04:01:47;;;;;;;35.00;20.95;;;8.10;99.90;;;;;;5033698;28;20112;-75
2021/05/01 04:04:12;;;;;;;33.08;19.63;;;8.00;99.80;;;;;;5032456;28;20125;-75
2021/05/01 04:06:39;;;;;;;35.20;19.65;;;8.00;99.80;;;;;;5032173;28;20697;-75
2021/05/01 04:09:05;;;;;;;36.80;20.45;;;8.00;99.80;;;;;;5032299;28;20495;-74
2021/05/01 04:11:32;;;;;;;33.72;20.13;;;8.00;99.90;;;;;;5031596;28;20029;-76
2021/05/01 04:13:57;;;;;;;35.40;20.42;;;7.90;99.90;;;;;;5033407;28;20049;-75
2021/05/01 04:16:23;;;;;;;31.45;19.52;;;8.00;99.90;;;;;;5030563;28;20446;-75
2021/05/01 04:18:49;;;;;;;32.53;19.63;;;7.90;99.90;;;;;;5031739;28;20410;-75
2021/05/01 04:21:16;;;;;;;32.22;19.85;;;7.90;99.90;;;;;;5031700;28;20048;-75
2021/05/01 04:23:42;;;;;;;43.83;21.38;;;8.00;99.80;;;;;;5031722;28;20025;-75
2021/05/01 04:26:08;;;;;;;37.92;23.17;;;7.90;99.80;;;;;;5033240;28;20041;-74
2021/05/01 04:28:34;;;;;;;33.97;20.25;;;7.90;99.80;;;;;;5030856;28;20443;-75
2021/05/01 04:30:59;;;;;;;36.03;19.70;;;8.00;99.90;;;;;;5031833;28;20042;-75
2021/05/01 04:33:25;;;;;;;36.33;20.50;;;7.90;99.80;;;;;;5031471;28;20557;-75
2021/05/01 04:35:51;;;;;;;34.72;20.65;;;7.90;99.70;;;;;;5031435;28;20045;-76
2021/05/01 04:38:17;;;;;;;33.03;20.13;;;7.90;99.80;;;;;;5031408;28;20039;-75
2021/05/01 04:40:43;;;;;;;34.92;21.13;;;8.00;99.80;;;;;;5032338;28;20025;-75
2021/05/01 04:43:11;;;;;;;33.67;20.25;;;8.00;99.70;;;;;;5031302;28;20064;-75
2021/05/01 04:45:38;;;;;;;35.58;20.83;;;8.00;99.70;;;;;;5031390;28;20061;-75
2021/05/01 04:48:06;;;;;;;34.40;19.98;;;8.10;99.80;;;;;;5031276;28;20025;-76
2021/05/01 04:50:32;;;;;;;34.97;21.08;;;8.10;99.80;;;;;;5031281;28;20052;-76
2021/05/01 04:52:58;;;;;;;34.47;20.92;;;8.20;99.90;;;;;;5032862;28;20025;-75
2021/05/01 04:55:25;;;;;;;37.97;22.10;;;8.20;99.90;;;;;;5031392;28;20037;-75
2021/05/01 04:57:52;;;;;;;40.60;23.85;;;8.30;99.90;;;;;;5031333;28;20140;-75
2021/05/01 05:00:20;;;;;;;41.13;23.10;;;8.40;99.90;;;;;;5031022;28;20038;-75
2021/05/01 05:02:46;;;;;;;41.30;23.75;;;8.40;99.90;;;;;;5030948;28;20468;-75
2021/05/01 05:05:14;;;;;;;38.05;22.75;;;8.50;99.90;;;;;;5032578;28;20029;-76
2021/05/01 05:07:40;;;;;;;38.08;23.92;;;8.60;99.90;;;;;;5031256;28;20038;-76
2021/05/01 05:10:08;;;;;;;41.97;24.10;;;8.70;99.90;;;;;;5029761;28;20041;-76
2021/05/01 05:12:33;;;;;;;42.42;25.17;;;8.70;99.90;;;;;;5030684;28;20072;-76
2021/05/01 05:14:59;;;;;;;43.35;25.55;;;8.70;99.90;;;;;;5029865;28;20394;-75
2021/05/01 05:17:25;;;;;;;42.00;25.05;;;8.80;99.90;;;;;;5030820;28;20026;-75
2021/05/01 05:19:51;;;;;;;43.67;24.92;;;8.80;99.90;;;;;;5032160;28;20036;-76
2021/05/01 05:22:16;;;;;;;42.75;25.58;;;8.80;99.90;;;;;;5030701;28;20477;-75
2021/05/01 05:24:42;;;;;;;42.33;24.90;;;8.90;99.90;;;;;;5030624;28;20044;-75
2021/05/01 05:27:09;;;;;;;40.55;24.85;;;9.00;99.90;;;;;;5029487;28;20254;-74
2021/05/01 05:29:35;;;;;;;42.42;25.33;;;9.10;99.90;;;;;;5030307;28;20053;-75
2021/05/01 05:32:04;;;;;;;39.47;24.63;;;9.20;99.90;;;;;;5032114;28;20040;-75
2021/05/01 05:34:30;;;;;;;41.05;23.58;;;9.20;99.90;;;;;;5030141;28;20042;-76
2021/05/01 05:36:56;;;;;;;40.30;24.10;;;9.40;99.90;;;;;;5030876;28;20061;-76
2021/05/01 05:39:22;;;;;;;41.25;24.08;;;9.50;99.90;;;;;;5030710;28;20065;-76
2021/05/01 05:41:47;;;;;;;37.25;23.27;;;9.60;99.90;;;;;;5029759;28;20447;-76
2021/05/01 05:44:13;;;;;;;36.55;23.98;;;9.60;99.90;;;;;;5031808;28;20443;-75
2021/05/01 05:46:39;;;;;;;40.35;24.48;;;9.70;99.90;;;;;;5029428;28;20033;-76
2021/05/01 05:49:05;;;;;;;38.53;23.98;;;9.80;99.90;;;;;;5030238;28;20133;-76
2021/05/01 05:51:31;;;;;;;39.72;24.83;;;9.80;99.90;;;;;;5030251;28;20103;-76
2021/05/01 05:53:57;;;;;;;39.50;24.30;;;9.90;99.90;;;;;;5030116;28;20389;-75
2021/05/01 05:56:23;;;;;;;40.22;23.23;;;10.00;99.70;;;;;;5028874;28;20034;-76
2021/05/01 05:58:49;;;;;;;39.67;23.65;;;10.00;99.50;;;;;;5031535;28;20028;-75
2021/05/01 06:01:15;;;;;;;34.47;22.00;;;10.00;99.50;;;;;;5029994;28;20063;-75
2021/05/01 06:03:46;;;;;;;34.85;21.92;;;10.10;99.30;;;;;;5028638;28;20049;-75
2021/05/01 06:06:13;;;;;;;38.22;23.08;;;10.20;99.50;;;;;;5029725;28;20054;-76
2021/05/01 06:08:39;;;;;;;35.15;22.33;;;10.20;99.40;;;;;;5029910;28;20131;-76
2021/05/01 06:11:05;;;;;;;36.38;22.02;;;10.20;99.30;;;;;;5031215;28;20025;-74
2021/05/01 06:13:33;;;;;;;34.97;22.48;;;10.30;99.20;;;;;;5029632;28;20033;-75
2021/05/01 06:16:01;;;;;;;34.55;22.35;;;10.40;99.10;;;;;;5029727;28;20029;-76
2021/05/01 06:18:32;;;;;;;36.08;22.70;;;10.50;99.10;;;;;;5029990;28;20116;-75
2021/05/01 06:20:58;;;;;;;31.58;21.55;;;10.60;98.90;;;;;;5029672;28;20232;-76
2021/05/01 06:23:25;;;;;;;32.92;20.83;;;10.70;98.80;;;;;;5029046;28;20526;-75
2021/05/01 06:25:51;;;;;;;32.88;21.08;;;10.80;98.80;;;;;;5030913;28;20072;-75
2021/05/01 06:28:17;;;;;;;34.85;21.27;;;10.90;98.50;;;;;;5029102;28;20414;-75
2021/05/01 06:30:44;;;;;;;38.50;23.90;;;11.10;98.40;;;;;;5028161;28;20033;-75
2021/05/01 06:33:11;;;;;;;33.58;21.48;;;11.20;98.00;;;;;;5029260;28;20038;-75
2021/05/01 06:35:38;;;;;;;34.67;20.77;;;11.30;97.80;;;;;;5029753;28;20049;-76
2021/05/01 06:38:04;;;;;;;34.60;20.02;;;11.40;97.80;;;;;;5029633;28;20064;-75
2021/05/01 06:40:36;;;;;;;35.30;22.20;;;11.60;97.70;;;;;;5029398;28;20068;-74
2021/05/01 06:43:10;;;;;;;33.35;20.17;;;11.70;97.50;;;;;;5029018;28;20049;-75
2021/05/01 06:45:40;;;;;;;32.33;20.80;;;11.80;97.10;;;;;;5029079;28;20045;-75
2021/05/01 06:48:08;;;;;;;31.15;18.77;;;11.90;96.90;;;;;;5029065;28;20098;-75
2021/05/01 06:50:34;;;;;;;;;;;12.00;96.40;;;;;;5029513;28;20132;-76
2021/05/01 06:53:01;;;;;;;28.15;17.55;;;12.20;96.40;;;;;;5029914;28;20036;-76
2021/05/01 06:55:30;;;;;;;35.58;18.80;;;12.50;96.10;;;;;;5029076;28;20053;-75
2021/05/01 06:57:56;;;;;;;;;;;12.70;95.60;;;;;;5028665;28;20087;-75
2021/05/01 07:00:26;;;;;;;26.83;17.88;;;13.10;95.40;;;;;;5029140;28;19909;-76
2021/05/01 07:03:05;;;;;;;29.65;17.50;;;13.40;94.60;;;;;;5028856;28;20049;-75
2021/05/01 07:05:31;;;;;;;26.58;16.75;;;13.40;94.20;;;;;;5028900;28;20090;-76
2021/05/01 07:07:57;;;;;;;27.63;16.80;;;13.40;93.80;;;;;;5030697;28;20245;-75
2021/05/01 07:10:23;;;;;;;24.13;15.80;;;13.30;93.70;;;;;;5029046;28;20044;-75
2021/05/01 07:12:49;;;;;;;27.27;17.02;;;13.20;93.90;;;;;;5029509;28;20679;-75
2021/05/01 07:15:17;;;;;;;27.92;16.20;;;13.20;93.90;;;;;;5028207;28;20138;-75
2021/05/01 07:17:45;;;;;;;25.17;16.48;;;13.10;94.00;;;;;;5028929;28;20038;-75
2021/05/01 07:20:13;;;;;;;25.35;15.95;;;13.30;94.10;;;;;;5030677;28;20052;-76
2021/05/01 07:22:39;;;;;;;24.02;16.02;;;13.50;93.90;;;;;;5029558;28;20519;-75
2021/05/01 07:25:07;;;;;;;23.58;15.57;;;13.80;93.90;;;;;;5028939;28;20059;-74
2021/05/01 07:27:33;;;;;;;;;;;14.30;93.70;;;;;;5029579;28;20112;-75
2021/05/01 07:30:05;;;;;;;26.80;16.42;;;14.70;92.50;;;;;;5029269;28;19909;-76
2021/05/01 07:32:35;;;;;;;21.95;15.65;;;14.80;92.10;;;;;;5028924;28;20034;-77
2021/05/01 07:35:06;;;;;;;27.50;16.02;;;15.20;91.30;;;;;;5030519;28;20029;-76
2021/05/01 07:37:34;;;;;;;25.80;16.75;;;15.60;91.20;;;;;;5028764;28;20061;-76
2021/05/01 07:40:03;;;;;;;27.35;16.50;;;15.90;90.90;;;;;;5028487;28;20037;-75
2021/05/01 07:42:35;;;;;;;21.08;14.88;;;16.30;90.30;;;;;;5028695;28;20041;-75
2021/05/01 07:45:01;;;;;;;27.17;16.48;;;16.70;90.10;;;;;;5027847;28;20040;-75
2021/05/01 07:47:29;;;;;;;20.55;15.25;;;17.30;87.50;;;;;;5028938;28;20061;-74
2021/05/01 07:49:55;;;;;;;23.15;15.52;;;17.60;84.00;;;;;;5030494;28;20032;-74
2021/05/01 07:52:22;;;;;;;21.98;14.02;;;18.10;83.10;;;;;;5027749;28;20132;-76
2021/05/01 07:54:47;;;;;;;21.98;14.80;;;18.30;82.00;;;;;;5028688;28;20038;-75
2021/05/01 07:57:13;;;;;;;21.13;15.48;;;18.80;79.60;;;;;;5028996;28;20447;-74
2021/05/01 07:59:38;;;;;;;19.20;14.30;;;19.10;77.80;;;;;;5027513;28;20017;-76
2021/05/01 08:02:05;;;;;;;24.23;15.05;;;19.50;76.50;;;;;;5030550;28;20036;-76
2021/05/01 08:04:31;;;;;;;23.25;15.00;;;19.50;74.70;;;;;;5031596;28;20038;-75
2021/05/01 08:06:57;;;;;;;19.88;14.77;;;19.20;73.90;;;;;;5032344;28;20064;-74
2021/05/01 08:09:23;;;;;;;26.02;14.10;;;19.30;74.20;;;;;;5032024;28;20676;-75
2021/05/01 08:11:48;;;;;;;22.80;14.93;;;19.10;74.00;;;;;;5032026;28;20037;-76
2021/05/01 08:14:14;;;;;;;20.80;15.27;;;19.40;73.60;;;;;;5030971;28;20029;-75
2021/05/01 08:16:40;;;;;;;23.23;14.52;;;20.10;72.90;;;;;;5033499;28;20104;-74
2021/05/01 08:19:06;;;;;;;21.67;14.02;;;20.30;70.90;;;;;;5032063;28;20044;-74
2021/05/01 08:21:35;;;;;;;18.92;13.98;;;20.30;68.70;;;;;;5032221;28;20489;-74
2021/05/01 08:24:01;;;;;;;19.55;14.30;;;20.10;68.50;;;;;;5031866;28;20046;-74
2021/05/01 08:26:27;;;;;;;18.63;13.20;;;20.10;68.60;;;;;;5031843;28;20025;-74
2021/05/01 08:28:53;;;;;;;18.98;13.80;;;20.30;68.00;;;;;;5033627;28;20076;-74
2021/05/01 08:31:19;;;;;;;18.90;12.73;;;20.10;67.20;;;;;;5031636;28;20037;-75
2021/05/01 08:33:44;;;;;;;17.23;12.15;;;20.00;65.90;;;;;;5031847;28;20059;-74
2021/05/01 08:36:10;;;;;;;16.40;12.20;;;20.70;65.60;;;;;;5031689;28;20175;-75
2021/05/01 08:38:36;;;;;;;19.85;12.32;;;21.10;62.40;;;;;;5031814;28;20052;-73
2021/05/01 08:41:06;;;;;;;13.18;10.13;;;21.00;61.70;;;;;;5032029;28;20112;-73
2021/05/01 08:43:32;;;;;;;14.15;9.32;;;21.30;60.80;;;;;;5031170;28;20120;-74
2021/05/01 08:45:59;;;;;;;13.50;9.50;;;20.80;57.10;;;;;;5030345;28;20124;-75
2021/05/01 08:48:27;;;;;;;15.07;11.57;;;19.90;58.60;;;;;;5031297;28;20114;-74
2021/05/01 08:51:00;;;;;;;16.20;12.00;;;18.90;60.30;;;;;;5030212;28;20083;-75
2021/05/01 08:53:27;;;;;;;15.80;11.82;;;19.20;62.60;;;;;;5029893;28;20044;-74
2021/05/01 08:55:53;;;;;;;13.43;10.82;;;19.10;62.30;;;;;;5032932;28;20021;-75
2021/05/01 08:58:18;;;;;;;17.02;9.75;;;18.30;62.20;;;;;;5031437;28;20040;-75
2021/05/01 09:00:47;;;;;;;15.05;10.23;;;18.10;63.00;;;;;;5031193;28;20444;-73
2021/05/01 09:03:14;;;;;;;12.10;9.07;;;17.60;63.30;;;;;;5030586;28;20033;-74
2021/05/01 09:05:42;;;;;;;12.70;9.48;;;17.70;64.10;;;;;;5031423;28;20125;-74
2021/05/01 09:08:09;;;;;;;14.95;10.13;;;18.00;63.80;;;;;;5032555;28;20025;-74
2021/05/01 09:10:54;;;;;;;13.27;9.73;;;18.00;63.90;;;;;;5030030;28;20029;-74
2021/05/01 09:13:22;;;;;;;16.92;10.77;;;18.10;63.10;;;;;;5030990;28;20473;-75
2021/05/01 09:15:58;;;;;;;16.65;11.25;;;17.60;63.90;;;;;;5030288;28;20045;-75
2021/05/01 09:18:25;;;;;;;19.80;11.02;;;17.40;64.10;;;;;;5030969;28;20049;-74
2021/05/01 09:20:51;;;;;;;16.17;11.77;;;17.40;65.70;;;;;;5029465;28;20049;-74
2021/05/01 09:23:17;;;;;;;18.08;11.35;;;17.50;65.40;;;;;;5030015;28;20053;-73
2021/05/01 09:25:53;;;;;;;18.23;11.65;;;17.60;65.80;;;;;;5032486;28;20324;-75
2021/05/01 09:28:19;;;;;;;18.73;13.02;;;17.60;65.70;;;;;;5030073;28;20033;-74
2021/05/01 09:31:04;;;;;;;19.10;13.38;;;17.40;66.40;;;;;;5030947;28;20077;-74
2021/05/01 09:33:35;;;;;;;17.48;13.27;;;17.10;67.30;;;;;;5030541;28;20060;-74
2021/05/01 09:36:18;;;;;;;19.45;12.95;;;17.00;68.40;;;;;;5029122;28;20048;-75
2021/05/01 09:38:47;;;;;;;22.15;13.20;;;16.90;69.50;;;;;;5030534;28;20026;-75
2021/05/01 09:41:22;;;;;;;19.67;13.57;;;16.80;70.20;;;;;;5031542;28;20029;-75
2021/05/01 09:43:58;;;;;;;20.42;13.50;;;16.60;70.20;;;;;;5030950;28;20123;-74
2021/05/01 09:46:24;;;;;;;21.08;13.07;;;16.40;70.60;;;;;;5030614;28;20053;-75
2021/05/01 09:49:18;;;;;;;18.40;12.40;;;16.20;71.90;;;;;;5029064;28;20029;-75
2021/05/01 09:52:10;;;;;;;21.60;12.40;;;15.90;72.00;;;;;;5030147;28;20348;-74
2021/05/01 09:54:42;;;;;;;20.40;11.95;;;15.80;72.10;;;;;;5029797;28;20052;-74
2021/05/01 09:57:10;;;;;;;18.90;13.35;;;15.70;72.90;;;;;;5030349;28;20038;-74
2021/05/01 09:59:42;;;;;;;19.60;12.63;;;15.60;72.90;;;;;;5030479;28;20049;-75
2021/05/01 10:02:10;;;;;;;21.60;13.80;;;15.40;73.70;;;;;;5030918;28;20482;-75
2021/05/01 10:04:37;;;;;;;18.33;12.18;;;15.50;73.90;;;;;;5029716;28;20045;-74
2021/05/01 10:07:11;;;;;;;18.90;11.80;;;15.40;74.40;;;;;;5030121;28;20033;-73
2021/05/01 10:09:38;;;;;;;18.70;12.77;;;15.30;74.40;;;;;;5029640;28;20135;-75
2021/05/01 10:12:04;;;;;;;19.30;12.68;;;15.20;74.70;;;;;;5028920;28;20137;-74
2021/05/01 10:14:46;;;;;;;21.23;14.32;;;15.10;75.40;;;;;;5029908;28;20113;-74
2021/05/01 10:17:17;;;;;;;29.67;17.63;;;14.80;78.10;;;;;;5031313;28;20035;-73
2021/05/01 10:19:54;;;;;;;30.25;19.05;;;14.50;81.20;;;;;;5028198;28;20061;-74
2021/05/01 10:22:37;;;;;;;32.30;21.40;;;14.50;83.00;;;;;;5029426;28;20048;-75
2021/05/01 10:25:06;;;;;;;35.38;21.17;;;14.50;85.30;;;;;;5029437;28;20278;-75
2021/05/01 10:27:56;;;;;;;34.72;22.83;;;14.60;86.80;;;;;;5028194;28;20037;-74
2021/05/01 10:30:41;;;;;;;41.58;24.98;;;14.80;87.10;;;;;;5029655;28;20037;-74
2021/05/01 10:33:23;;;;;;;49.28;26.73;;;14.60;89.80;;;;;;5028589;28;20098;-75
2021/05/01 10:36:27;;;;;;;50.80;29.95;;;14.60;91.60;;;;;;5029683;28;20036;-74
2021/05/01 10:39:06;;;;;;;45.40;28.38;;;14.50;92.00;;;;;;5029603;28;20033;-75
2021/05/01 10:41:33;;;;;;;49.38;30.63;;;14.40;92.70;;;;;;5029245;28;20022;-75
2021/05/01 10:44:01;;;;;;;52.55;32.35;;;14.20;93.30;;;;;;5030734;28;20017;-74
2021/05/01 10:46:30;;;;;;;53.17;31.88;;;14.20;93.90;;;;;;5028792;28;20071;-74
2021/05/01 10:49:16;;;;;;;51.78;31.67;;;14.30;93.80;;;;;;5027877;28;20033;-75
2021/05/01 10:51:44;;;;;;;58.58;34.45;;;14.20;94.30;;;;;;5029090;28;20041;-75
2021/05/01 10:54:10;;;;;;;58.13;34.83;;;14.10;95.10;;;;;;5028176;28;20041;-75
2021/05/01 10:56:39;;;;;;;55.42;34.65;;;14.10;95.30;;;;;;5027602;28;20044;-75
2021/05/01 10:59:09;;;;;;;54.15;32.65;;;14.10;95.50;;;;;;5030387;28;20352;-75
2021/05/01 11:01:39;;;;;;;55.67;33.83;;;14.10;95.20;;;;;;5027937;28;20064;-74
2021/05/01 11:04:07;;;;;;;61.78;34.67;;;14.40;95.80;;;;;;5028480;28;20083;-75
2021/05/01 11:07:13;;;;;;;59.90;34.40;;;14.70;95.40;;;;;;5028856;28;20034;-75
2021/05/01 11:09:41;;;;;;;50.72;29.98;;;15.10;95.30;;;;;;5030932;28;20036;-75
2021/05/01 11:12:20;;;;;;;57.33;33.38;;;15.30;93.60;;;;;;5027698;28;20371;-74
2021/05/01 11:14:50;;;;;;;49.33;29.35;;;15.50;94.10;;;;;;5028058;28;20061;-74
2021/05/01 11:17:31;;;;;;;49.97;26.98;;;15.60;92.40;;;;;;5026833;28;20079;-74
2021/05/01 11:20:10;;;;;;;38.40;23.85;;;15.50;91.80;;;;;;5030289;28;20436;-75
2021/05/01 11:22:37;;;;;;;39.85;24.05;;;15.50;90.40;;;;;;5028326;28;20057;-73
2021/05/01 11:25:06;;;;;;;41.28;23.60;;;15.60;90.80;;;;;;5028443;28;20064;-73
2021/05/01 11:27:31;;;;;;;40.85;24.88;;;15.70;90.10;;;;;;5028730;28;20061;-75
2021/05/01 11:30:00;;;;;;;38.45;23.83;;;15.70;89.40;;;;;;5028891;28;20123;-74
2021/05/01 11:32:29;;;;;;;37.90;23.20;;;15.70;89.20;;;;;;5027482;28;20081;-73
2021/05/01 11:35:12;;;;;;;37.75;23.55;;;15.60;87.10;;;;;;5029888;28;20032;-74
2021/05/01 11:37:49;;;;;;;35.67;22.58;;;15.50;87.90;;;;;;5028212;28;20056;-73
2021/05/01 11:40:16;;;;;;;35.97;21.80;;;15.70;86.30;;;;;;5031754;28;20368;-74
2021/05/01 11:42:44;;;;;;;34.13;21.33;;;15.80;85.80;;;;;;5029851;28;20033;-75
2021/05/01 11:45:14;;;;;;;32.38;20.27;;;15.70;84.50;;;;;;5032354;28;20041;-74
2021/05/01 11:47:41;;;;;;;28.25;18.33;;;15.80;84.10;;;;;;5031379;28;20033;-74
2021/05/01 11:50:09;;;;;;;30.38;19.30;;;15.60;82.80;;;;;;5033916;28;20029;-73
2021/05/01 11:52:53;;;;;;;34.90;20.95;;;15.30;82.00;;;;;;5032181;28;20042;-73
2021/05/01 11:55:22;;;;;;;36.85;21.08;;;15.60;83.40;;;;;;5031026;28;20112;-74
2021/05/01 11:58:00;;;;;;;36.05;21.67;;;15.60;83.30;;;;;;5031965;28;20037;-73
2021/05/01 12:00:36;;;;;;;36.75;22.50;;;15.80;82.00;;;;;;5032365;28;20037;-74
2021/05/01 12:03:20;;;;;;;37.38;22.15;;;16.00;81.80;;;;;;5032295;28;20122;-74
2021/05/01 12:05:52;;;;;;;35.30;22.20;;;16.20;82.60;;;;;;5032006;28;20034;-74
2021/05/01 12:08:21;;;;;;;36.53;22.40;;;16.10;80.70;;;;;;5031834;28;20021;-73
2021/05/01 12:10:53;;;;;;;39.40;23.05;;;16.00;78.20;;;;;;5033705;28;20017;-73
2021/05/01 12:13:27;;;;;;;39.97;23.23;;;16.10;77.90;;;;;;5031946;28;20578;-74
2021/05/01 12:15:55;;;;;;;40.70;23.73;;;16.20;78.60;;;;;;5031042;28;20037;-74
2021/05/01 12:18:21;;;;;;;45.88;26.25;;;16.20;78.30;;;;;;5030770;28;20396;-74
2021/05/01 12:20:54;;;;;;;42.67;25.02;;;16.20;79.20;;;;;;5030789;28;20495;-74
2021/05/01 12:23:47;;;;;;;46.63;27.92;;;16.30;79.50;;;;;;5031635;28;20026;-73
2021/05/01 12:26:37;;;;;;;50.40;29.10;;;16.50;79.20;;;;;;5031849;28;20607;-73
2021/05/01 12:29:18;;;;;;;50.95;29.95;;;16.40;79.50;;;;;;5030996;28;20083;-73
2021/05/01 12:31:53;;;;;;;47.92;29.70;;;16.20;79.60;;;;;;5031958;28;20103;-74
2021/05/01 12:34:20;;;;;;;49.03;30.17;;;16.10;80.10;;;;;;5030734;28;20116;-73
2021/05/01 12:36:48;;;;;;;53.45;30.67;;;16.00;79.30;;;;;;5031649;28;20133;-74
2021/05/01 12:39:15;;;;;;;55.95;30.77;;;15.80;79.80;;;;;;5031513;28;20060;-73